sensor_id;sensor_type;location;lat;lon;timestamp;P1;durP1;ratioP1;P2;durP2;ratioP2
50689;SDS011;54375;48.298;11.238;2023-02-05T00:14:24;14.05;;;7.90;;
50689;SDS011;54375;48.298;11.238;2023-02-05T00:34:28;14.85;;;8.68;;
50689;SDS011;54375;48.298;11.238;2023-02-05T00:54:30;16.63;;;9.82;;
50689;SDS011;54375;48.298;11.238;2023-02-05T01:14:34;17.20;;;8.63;;
50689;SDS011;54375;48.298;11.238;2023-02-05T01:34:36;12.57;;;8.00;;
50689;SDS011;54375;48.298;11.238;2023-02-05T01:54:39;13.23;;;8.60;;
50689;SDS011;54375;48.298;11.238;2023-02-05T02:14:46;18.05;;;9.50;;
50689;SDS011;54375;48.298;11.238;2023-02-05T02:34:54;11.50;;;8.40;;
50689;SDS011;54375;48.298;11.238;2023-02-05T02:55:02;15.00;;;8.52;;
50689;SDS011;54375;48.298;11.238;2023-02-05T03:15:09;14.00;;;7.93;;
50689;SDS011;54375;48.298;11.238;2023-02-05T03:35:17;24.20;;;11.70;;
50689;SDS011;54375;48.298;11.238;2023-02-05T03:55:27;13.15;;;8.30;;
50689;SDS011;54375;48.298;11.238;2023-02-05T04:15:32;31.05;;;13.75;;
50689;SDS011;54375;48.298;11.238;2023-02-05T04:35:35;15.65;;;8.73;;
50689;SDS011;54375;48.298;11.238;2023-02-05T04:55:38;11.25;;;6.80;;
50689;SDS011;54375;48.298;11.238;2023-02-05T05:15:40;11.20;;;7.10;;
50689;SDS011;54375;48.298;11.238;2023-02-05T05:35:43;14.95;;;8.25;;
50689;SDS011;54375;48.298;11.238;2023-02-05T05:55:46;14.13;;;7.93;;
50689;SDS011;54375;48.298;11.238;2023-02-05T06:15:48;15.65;;;9.18;;
50689;SDS011;54375;48.298;11.238;2023-02-05T06:35:51;17.20;;;9.07;;
50689;SDS011;54375;48.298;11.238;2023-02-05T06:55:56;19.90;;;11.07;;
50689;SDS011;54375;48.298;11.238;2023-02-05T07:16:01;15.43;;;9.40;;
50689;SDS011;54375;48.298;11.238;2023-02-05T07:56:08;29.05;;;17.27;;
50689;SDS011;54375;48.298;11.238;2023-02-05T08:16:10;39.55;;;22.00;;
50689;SDS011;54375;48.298;11.238;2023-02-05T08:36:13;20.45;;;13.73;;
50689;SDS011;54375;48.298;11.238;2023-02-05T08:56:16;22.80;;;15.43;;
50689;SDS011;54375;48.298;11.238;2023-02-05T09:16:18;21.15;;;14.57;;
50689;SDS011;54375;48.298;11.238;2023-02-05T09:36:21;17.27;;;11.13;;
50689;SDS011;54375;48.298;11.238;2023-02-05T09:56:25;14.55;;;9.95;;
50689;SDS011;54375;48.298;11.238;2023-02-05T10:37:02;15.70;;;10.57;;
50689;SDS011;54375;48.298;11.238;2023-02-05T10:57:11;15.98;;;9.88;;
50689;SDS011;54375;48.298;11.238;2023-02-05T11:17:19;17.58;;;10.98;;
50689;SDS011;54375;48.298;11.238;2023-02-05T11:37:23;20.55;;;12.75;;
50689;SDS011;54375;48.298;11.238;2023-02-05T11:57:33;16.63;;;10.13;;
50689;SDS011;54375;48.298;11.238;2023-02-05T12:17:38;35.20;;;21.95;;
50689;SDS011;54375;48.298;11.238;2023-02-05T12:37:43;20.98;;;12.55;;
50689;SDS011;54375;48.298;11.238;2023-02-05T12:57:53;17.45;;;8.10;;
50689;SDS011;54375;48.298;11.238;2023-02-05T13:18:00;14.15;;;7.82;;
50689;SDS011;54375;48.298;11.238;2023-02-05T13:38:16;16.58;;;8.65;;
50689;SDS011;54375;48.298;11.238;2023-02-05T13:58:26;17.17;;;9.25;;
50689;SDS011;54375;48.298;11.238;2023-02-05T14:39:00;16.73;;;8.23;;
50689;SDS011;54375;48.298;11.238;2023-02-05T14:59:06;25.40;;;9.18;;
50689;SDS011;54375;48.298;11.238;2023-02-05T15:39:24;24.83;;;13.13;;
50689;SDS011;54375;48.298;11.238;2023-02-05T15:59:31;21.10;;;9.20;;
50689;SDS011;54375;48.298;11.238;2023-02-05T16:19:35;25.02;;;12.90;;
50689;SDS011;54375;48.298;11.238;2023-02-05T16:39:43;38.80;;;17.45;;
50689;SDS011;54375;48.298;11.238;2023-02-05T16:59:52;24.45;;;13.43;;
50689;SDS011;54375;48.298;11.238;2023-02-05T17:20:03;29.40;;;12.73;;
50689;SDS011;54375;48.298;11.238;2023-02-05T17:40:08;35.25;;;18.08;;
50689;SDS011;54375;48.298;11.238;2023-02-05T18:00:14;33.22;;;18.20;;
50689;SDS011;54375;48.298;11.238;2023-02-05T18:20:18;43.45;;;23.50;;
50689;SDS011;54375;48.298;11.238;2023-02-05T18:40:21;50.05;;;26.80;;
50689;SDS011;54375;48.298;11.238;2023-02-05T19:00:24;54.63;;;28.02;;
50689;SDS011;54375;48.298;11.238;2023-02-05T19:20:26;44.35;;;24.00;;
50689;SDS011;54375;48.298;11.238;2023-02-05T19:40:29;51.30;;;25.25;;
50689;SDS011;54375;48.298;11.238;2023-02-05T20:00:31;66.15;;;35.63;;
50689;SDS011;54375;48.298;11.238;2023-02-05T20:20:34;78.28;;;38.97;;
50689;SDS011;54375;48.298;11.238;2023-02-05T20:40:40;62.42;;;28.58;;
50689;SDS011;54375;48.298;11.238;2023-02-05T21:00:43;48.05;;;25.80;;
50689;SDS011;54375;48.298;11.238;2023-02-05T21:20:46;44.70;;;24.17;;
50689;SDS011;54375;48.298;11.238;2023-02-05T21:40:48;63.20;;;33.40;;
50689;SDS011;54375;48.298;11.238;2023-02-05T22:00:51;40.70;;;22.83;;
50689;SDS011;54375;48.298;11.238;2023-02-05T22:20:53;34.05;;;19.83;;
50689;SDS011;54375;48.298;11.238;2023-02-05T22:40:56;31.75;;;18.13;;
50689;SDS011;54375;48.298;11.238;2023-02-05T23:01:05;27.30;;;16.83;;
50689;SDS011;54375;48.298;11.238;2023-02-05T23:21:08;24.23;;;15.27;;
50689;SDS011;54375;48.298;11.238;2023-02-05T23:41:12;21.55;;;13.50;;
